sensor_id;sensor_type;location;lat;lon;timestamp;pressure;altitude;pressure_sealevel;temperature;humidity
65756;BME280;52489;47.502;18.940;2022-09-12T00:00:09;97983.25;;;13.46;84.92
65756;BME280;52489;47.502;18.940;2022-09-12T00:01:18;97988.97;;;13.48;84.52
65756;BME280;52489;47.502;18.940;2022-09-12T00:02:21;97984.03;;;13.47;84.26
65756;BME280;52489;47.502;18.940;2022-09-12T00:03:24;97978.12;;;13.50;84.14
65756;BME280;52489;47.502;18.940;2022-09-12T00:04:27;97984.19;;;13.41;84.55
65756;BME280;52489;47.502;18.940;2022-09-12T00:05:30;97978.44;;;13.39;84.75
65756;BME280;52489;47.502;18.940;2022-09-12T00:06:35;97979.09;;;13.36;84.87
65756;BME280;52489;47.502;18.940;2022-09-12T00:07:39;97979.19;;;13.49;84.07
65756;BME280;52489;47.502;18.940;2022-09-12T00:08:42;97982.78;;;13.44;84.16
65756;BME280;52489;47.502;18.940;2022-09-12T00:09:45;97983.69;;;13.48;83.88
65756;BME280;52489;47.502;18.940;2022-09-12T00:10:48;97977.78;;;13.60;83.58
65756;BME280;52489;47.502;18.940;2022-09-12T00:11:51;97983.38;;;13.58;83.12
65756;BME280;52489;47.502;18.940;2022-09-12T00:12:54;97975.13;;;13.60;83.23
65756;BME280;52489;47.502;18.940;2022-09-12T00:13:59;97982.59;;;13.58;83.24
65756;BME280;52489;47.502;18.940;2022-09-12T00:15:02;97977.03;;;13.51;83.56
65756;BME280;52489;47.502;18.940;2022-09-12T00:16:06;97980.13;;;13.53;83.48
65756;BME280;52489;47.502;18.940;2022-09-12T00:17:09;97975.63;;;13.53;83.47
65756;BME280;52489;47.502;18.940;2022-09-12T00:18:15;97977.81;;;13.51;83.48
65756;BME280;52489;47.502;18.940;2022-09-12T00:19:18;97974.41;;;13.51;83.36
65756;BME280;52489;47.502;18.940;2022-09-12T00:20:21;97974.44;;;13.42;83.71
65756;BME280;52489;47.502;18.940;2022-09-12T00:21:24;97977.78;;;13.60;83.05
65756;BME280;52489;47.502;18.940;2022-09-12T00:22:27;97981.94;;;13.70;82.44
65756;BME280;52489;47.502;18.940;2022-09-12T00:23:31;97978.03;;;13.76;82.31
65756;BME280;52489;47.502;18.940;2022-09-12T00:24:38;97978.34;;;13.74;82.13
65756;BME280;52489;47.502;18.940;2022-09-12T00:25:47;97982.84;;;13.74;82.17
65756;BME280;52489;47.502;18.940;2022-09-12T00:26:51;97981.34;;;13.64;82.61
65756;BME280;52489;47.502;18.940;2022-09-12T00:27:54;97992.06;;;13.50;83.35
65756;BME280;52489;47.502;18.940;2022-09-12T00:28:57;97988.63;;;13.58;83.08
65756;BME280;52489;47.502;18.940;2022-09-12T00:29:59;97980.59;;;13.55;83.07
65756;BME280;52489;47.502;18.940;2022-09-12T00:31:08;97984.78;;;13.47;83.54
65756;BME280;52489;47.502;18.940;2022-09-12T00:32:12;97984.13;;;13.59;83.10
65756;BME280;52489;47.502;18.940;2022-09-12T00:33:16;97978.41;;;13.57;83.11
65756;BME280;52489;47.502;18.940;2022-09-12T00:34:19;97982.28;;;13.51;83.20
65756;BME280;52489;47.502;18.940;2022-09-12T00:35:22;97984.94;;;13.51;83.21
65756;BME280;52489;47.502;18.940;2022-09-12T00:36:26;97981.06;;;13.48;83.49
65756;BME280;52489;47.502;18.940;2022-09-12T00:37:30;97983.88;;;13.43;83.73
65756;BME280;52489;47.502;18.940;2022-09-12T00:38:33;97979.88;;;13.37;84.19
65756;BME280;52489;47.502;18.940;2022-09-12T00:39:40;97981.25;;;13.43;83.94
65756;BME280;52489;47.502;18.940;2022-09-12T00:40:43;97983.38;;;13.58;83.19
65756;BME280;52489;47.502;18.940;2022-09-12T00:41:52;97987.84;;;13.58;83.14
65756;BME280;52489;47.502;18.940;2022-09-12T00:42:55;97988.16;;;13.56;82.70
65756;BME280;52489;47.502;18.940;2022-09-12T00:45:22;97983.22;;;13.55;82.52
65756;BME280;52489;47.502;18.940;2022-09-12T00:47:39;97986.91;;;13.62;82.50
65756;BME280;52489;47.502;18.940;2022-09-12T00:48:48;97986.66;;;13.47;83.37
65756;BME280;52489;47.502;18.940;2022-09-12T00:50:07;97988.66;;;13.50;83.45
65756;BME280;52489;47.502;18.940;2022-09-12T00:51:11;97992.34;;;13.49;83.46
65756;BME280;52489;47.502;18.940;2022-09-12T00:52:27;97987.09;;;13.49;83.50
65756;BME280;52489;47.502;18.940;2022-09-12T00:53:31;97984.66;;;13.43;83.69
65756;BME280;52489;47.502;18.940;2022-09-12T00:54:41;97983.53;;;13.53;83.24
65756;BME280;52489;47.502;18.940;2022-09-12T00:55:48;97985.69;;;13.51;83.50
65756;BME280;52489;47.502;18.940;2022-09-12T00:57:00;97983.09;;;13.42;83.95
65756;BME280;52489;47.502;18.940;2022-09-12T00:58:09;97989.31;;;13.38;84.32
65756;BME280;52489;47.502;18.940;2022-09-12T00:59:26;97986.22;;;13.36;84.33
65756;BME280;52489;47.502;18.940;2022-09-12T01:00:30;97982.19;;;13.30;84.60
65756;BME280;52489;47.502;18.940;2022-09-12T01:01:34;97976.16;;;13.38;84.45
65756;BME280;52489;47.502;18.940;2022-09-12T01:02:38;97978.91;;;13.50;83.66
65756;BME280;52489;47.502;18.940;2022-09-12T01:03:41;97979.38;;;13.52;83.37
65756;BME280;52489;47.502;18.940;2022-09-12T01:04:44;97984.94;;;13.51;83.27
65756;BME280;52489;47.502;18.940;2022-09-12T01:06:00;97978.00;;;13.46;83.64
65756;BME280;52489;47.502;18.940;2022-09-12T01:07:07;97983.44;;;13.32;84.42
65756;BME280;52489;47.502;18.940;2022-09-12T01:08:10;97978.31;;;13.36;84.53
65756;BME280;52489;47.502;18.940;2022-09-12T01:09:17;97978.63;;;13.43;83.76
65756;BME280;52489;47.502;18.940;2022-09-12T01:10:21;97975.38;;;13.37;83.87
65756;BME280;52489;47.502;18.940;2022-09-12T01:11:26;97979.41;;;13.35;83.90
65756;BME280;52489;47.502;18.940;2022-09-12T01:12:30;97978.78;;;13.38;83.76
65756;BME280;52489;47.502;18.940;2022-09-12T01:13:34;97975.53;;;13.41;83.69
65756;BME280;52489;47.502;18.940;2022-09-12T01:14:37;97977.81;;;13.42;83.48
65756;BME280;52489;47.502;18.940;2022-09-12T01:15:41;97976.16;;;13.38;83.52
65756;BME280;52489;47.502;18.940;2022-09-12T01:16:45;97975.84;;;13.31;83.97
65756;BME280;52489;47.502;18.940;2022-09-12T01:20:43;97979.09;;;13.28;83.78
65756;BME280;52489;47.502;18.940;2022-09-12T01:27:34;97985.16;;;13.28;83.22
65756;BME280;52489;47.502;18.940;2022-09-12T01:35:38;97979.28;;;13.31;83.55
65756;BME280;52489;47.502;18.940;2022-09-12T01:37:01;97978.94;;;13.33;84.04
65756;BME280;52489;47.502;18.940;2022-09-12T01:38:26;97986.69;;;13.20;84.94
65756;BME280;52489;47.502;18.940;2022-09-12T01:40:58;97991.81;;;13.17;85.45
65756;BME280;52489;47.502;18.940;2022-09-12T01:44:54;97984.81;;;13.21;85.11
65756;BME280;52489;47.502;18.940;2022-09-12T01:46:23;97986.69;;;13.12;85.35
65756;BME280;52489;47.502;18.940;2022-09-12T01:47:43;97989.66;;;13.10;85.57
65756;BME280;52489;47.502;18.940;2022-09-12T01:48:59;97984.19;;;13.24;84.94
65756;BME280;52489;47.502;18.940;2022-09-12T01:50:15;97980.66;;;13.20;84.85
65756;BME280;52489;47.502;18.940;2022-09-12T01:51:54;97984.06;;;13.12;85.39
65756;BME280;52489;47.502;18.940;2022-09-12T01:53:12;97989.31;;;13.20;84.74
65756;BME280;52489;47.502;18.940;2022-09-12T01:56:22;97983.59;;;13.18;84.62
65756;BME280;52489;47.502;18.940;2022-09-12T01:57:31;97982.34;;;13.16;84.91
65756;BME280;52489;47.502;18.940;2022-09-12T01:58:44;97980.03;;;13.14;85.02
65756;BME280;52489;47.502;18.940;2022-09-12T01:59:54;97984.84;;;13.30;84.17
65756;BME280;52489;47.502;18.940;2022-09-12T02:01:05;97977.25;;;13.37;83.71
65756;BME280;52489;47.502;18.940;2022-09-12T02:02:17;97975.53;;;13.32;83.86
65756;BME280;52489;47.502;18.940;2022-09-12T02:03:26;97981.91;;;13.23;84.38
65756;BME280;52489;47.502;18.940;2022-09-12T02:04:45;97980.03;;;13.32;84.07
65756;BME280;52489;47.502;18.940;2022-09-12T02:06:00;97984.53;;;13.23;84.43
65756;BME280;52489;47.502;18.940;2022-09-12T02:07:17;97986.06;;;13.15;85.11
65756;BME280;52489;47.502;18.940;2022-09-12T02:08:26;97986.41;;;13.13;85.22
65756;BME280;52489;47.502;18.940;2022-09-12T02:09:36;97986.41;;;13.13;85.22
65756;BME280;52489;47.502;18.940;2022-09-12T02:10:49;97983.44;;;13.15;85.26
65756;BME280;52489;47.502;18.940;2022-09-12T02:11:57;97988.84;;;13.18;85.23
65756;BME280;52489;47.502;18.940;2022-09-12T02:13:17;97983.16;;;13.16;85.37
65756;BME280;52489;47.502;18.940;2022-09-12T02:14:26;97982.19;;;13.21;85.40
65756;BME280;52489;47.502;18.940;2022-09-12T02:15:38;97983.72;;;13.22;85.45
65756;BME280;52489;47.502;18.940;2022-09-12T02:16:46;97982.53;;;13.19;85.46
65756;BME280;52489;47.502;18.940;2022-09-12T02:17:54;97980.53;;;13.25;85.36
65756;BME280;52489;47.502;18.940;2022-09-12T02:19:06;97984.97;;;13.16;86.00
65756;BME280;52489;47.502;18.940;2022-09-12T02:20:22;97980.81;;;13.15;86.06
65756;BME280;52489;47.502;18.940;2022-09-12T02:22:06;97988.84;;;13.18;86.00
65756;BME280;52489;47.502;18.940;2022-09-12T02:23:19;97995.22;;;13.26;85.82
65756;BME280;52489;47.502;18.940;2022-09-12T02:24:32;97994.88;;;13.19;85.99
65756;BME280;52489;47.502;18.940;2022-09-12T02:25:40;97996.75;;;13.18;86.04
65756;BME280;52489;47.502;18.940;2022-09-12T02:26:58;98002.94;;;13.14;86.40
65756;BME280;52489;47.502;18.940;2022-09-12T02:28:07;97993.50;;;13.13;86.70
65756;BME280;52489;47.502;18.940;2022-09-12T02:29:12;97992.12;;;13.07;86.78
65756;BME280;52489;47.502;18.940;2022-09-12T02:30:16;97988.09;;;13.01;87.11
65756;BME280;52489;47.502;18.940;2022-09-12T02:32:35;97998.19;;;12.72;88.63
65756;BME280;52489;47.502;18.940;2022-09-12T02:38:06;97992.12;;;12.89;87.12
65756;BME280;52489;47.502;18.940;2022-09-12T02:39:10;98002.00;;;13.10;86.38
65756;BME280;52489;47.502;18.940;2022-09-12T02:40:13;97997.84;;;13.17;85.99
65756;BME280;52489;47.502;18.940;2022-09-12T02:41:18;97998.81;;;12.95;87.14
65756;BME280;52489;47.502;18.940;2022-09-12T02:42:23;97991.19;;;13.11;86.72
65756;BME280;52489;47.502;18.940;2022-09-12T02:43:27;97999.25;;;12.97;87.31
65756;BME280;52489;47.502;18.940;2022-09-12T02:44:30;97991.53;;;12.84;88.38
65756;BME280;52489;47.502;18.940;2022-09-12T02:45:35;98000.81;;;12.81;88.65
65756;BME280;52489;47.502;18.940;2022-09-12T02:46:43;97998.81;;;12.95;87.94
65756;BME280;52489;47.502;18.940;2022-09-12T02:48:12;97991.53;;;12.84;88.09
65756;BME280;52489;47.502;18.940;2022-09-12T02:49:17;97988.59;;;12.85;88.26
65756;BME280;52489;47.502;18.940;2022-09-12T02:50:20;97992.94;;;12.81;88.62
65756;BME280;52489;47.502;18.940;2022-09-12T02:51:24;98000.19;;;12.84;88.18
65756;BME280;52489;47.502;18.940;2022-09-12T02:52:28;97999.88;;;12.68;88.65
65756;BME280;52489;47.502;18.940;2022-09-12T02:53:32;97996.19;;;12.69;89.04
65756;BME280;52489;47.502;18.940;2022-09-12T02:54:36;97999.88;;;12.68;89.24
65756;BME280;52489;47.502;18.940;2022-09-12T02:55:40;97995.56;;;12.81;88.70
65756;BME280;52489;47.502;18.940;2022-09-12T02:56:44;97991.97;;;12.86;88.31
65756;BME280;52489;47.502;18.940;2022-09-12T02:57:47;97985.50;;;12.74;88.99
65756;BME280;52489;47.502;18.940;2022-09-12T02:58:50;97993.06;;;12.76;88.79
65756;BME280;52489;47.502;18.940;2022-09-12T02:59:56;97991.97;;;12.60;90.05
65756;BME280;52489;47.502;18.940;2022-09-12T03:08:46;97996.63;;;12.80;87.48
65756;BME280;52489;47.502;18.940;2022-09-12T03:17:09;97999.25;;;12.71;87.89
65756;BME280;52489;47.502;18.940;2022-09-12T03:20:14;97998.03;;;12.51;88.30
65756;BME280;52489;47.502;18.940;2022-09-12T03:21:35;97992.44;;;12.44;89.21
65756;BME280;52489;47.502;18.940;2022-09-12T03:22:52;97991.97;;;12.51;89.04
65756;BME280;52489;47.502;18.940;2022-09-12T03:25:53;97993.69;;;12.47;89.23
65756;BME280;52489;47.502;18.940;2022-09-12T03:27:18;97999.88;;;12.42;89.52
65756;BME280;52489;47.502;18.940;2022-09-12T03:28:23;97999.84;;;12.34;90.28
65756;BME280;52489;47.502;18.940;2022-09-12T03:29:26;98006.03;;;12.38;90.18
65756;BME280;52489;47.502;18.940;2022-09-12T03:30:39;98002.19;;;12.44;90.12
65756;BME280;52489;47.502;18.940;2022-09-12T03:31:51;98010.69;;;12.41;90.25
65756;BME280;52489;47.502;18.940;2022-09-12T03:32:55;98009.91;;;12.49;89.84
65756;BME280;52489;47.502;18.940;2022-09-12T03:34:01;98017.47;;;12.50;89.71
65756;BME280;52489;47.502;18.940;2022-09-12T03:35:05;98013.59;;;12.48;89.87
65756;BME280;52489;47.502;18.940;2022-09-12T03:36:28;98008.34;;;12.48;89.66
65756;BME280;52489;47.502;18.940;2022-09-12T03:37:32;98008.34;;;12.48;89.70
65756;BME280;52489;47.502;18.940;2022-09-12T03:38:35;97998.19;;;12.55;89.48
65756;BME280;52489;47.502;18.940;2022-09-12T03:39:37;98004.06;;;12.61;89.12
65756;BME280;52489;47.502;18.940;2022-09-12T03:40:42;98011.00;;;12.57;88.96
65756;BME280;52489;47.502;18.940;2022-09-12T03:41:45;98004.53;;;12.54;89.13
65756;BME280;52489;47.502;18.940;2022-09-12T03:42:50;98009.31;;;12.52;89.27
65756;BME280;52489;47.502;18.940;2022-09-12T03:43:53;98005.59;;;12.53;89.26
65756;BME280;52489;47.502;18.940;2022-09-12T03:44:58;98001.41;;;12.52;89.20
65756;BME280;52489;47.502;18.940;2022-09-12T03:46:01;98002.47;;;12.51;89.29
65756;BME280;52489;47.502;18.940;2022-09-12T03:47:04;98000.66;;;12.51;89.22
65756;BME280;52489;47.502;18.940;2022-09-12T03:48:12;97997.06;;;12.47;89.33
65756;BME280;52489;47.502;18.940;2022-09-12T03:49:15;97998.03;;;12.51;89.25
65756;BME280;52489;47.502;18.940;2022-09-12T03:50:19;98004.97;;;12.56;88.83
65756;BME280;52489;47.502;18.940;2022-09-12T03:51:22;98005.91;;;12.60;88.72
65756;BME280;52489;47.502;18.940;2022-09-12T03:52:25;98004.19;;;12.56;88.96
65756;BME280;52489;47.502;18.940;2022-09-12T03:53:28;98004.53;;;12.54;89.04
65756;BME280;52489;47.502;18.940;2022-09-12T03:54:31;97999.84;;;12.51;89.26
65756;BME280;52489;47.502;18.940;2022-09-12T03:55:34;98006.69;;;12.52;89.26
65756;BME280;52489;47.502;18.940;2022-09-12T03:56:37;98003.28;;;12.51;89.47
65756;BME280;52489;47.502;18.940;2022-09-12T03:57:42;98012.09;;;12.56;89.00
65756;BME280;52489;47.502;18.940;2022-09-12T03:58:45;98010.22;;;12.56;88.85
65756;BME280;52489;47.502;18.940;2022-09-12T03:59:48;98002.31;;;12.47;89.24
65756;BME280;52489;47.502;18.940;2022-09-12T04:00:52;98014.84;;;12.42;89.66
65756;BME280;52489;47.502;18.940;2022-09-12T04:01:55;98009.59;;;12.42;89.73
65756;BME280;52489;47.502;18.940;2022-09-12T04:02:58;98009.44;;;12.47;89.41
65756;BME280;52489;47.502;18.940;2022-09-12T04:04:01;98006.19;;;12.41;89.52
65756;BME280;52489;47.502;18.940;2022-09-12T04:05:04;98000.16;;;12.41;89.81
65756;BME280;52489;47.502;18.940;2022-09-12T04:06:08;98002.19;;;12.44;89.44
65756;BME280;52489;47.502;18.940;2022-09-12T04:07:12;98006.19;;;12.41;89.57
65756;BME280;52489;47.502;18.940;2022-09-12T04:08:15;98010.19;;;12.30;90.07
65756;BME280;52489;47.502;18.940;2022-09-12T04:09:18;98005.72;;;12.31;90.29
65756;BME280;52489;47.502;18.940;2022-09-12T04:10:21;98001.41;;;12.35;89.76
65756;BME280;52489;47.502;18.940;2022-09-12T04:11:24;98011.16;;;12.43;89.33
65756;BME280;52489;47.502;18.940;2022-09-12T04:12:28;98007.41;;;12.26;89.71
65756;BME280;52489;47.502;18.940;2022-09-12T04:13:31;98003.22;;;12.25;90.00
65756;BME280;52489;47.502;18.940;2022-09-12T04:14:34;98007.13;;;12.37;89.35
65756;BME280;52489;47.502;18.940;2022-09-12T04:15:37;98017.16;;;12.43;89.02
65756;BME280;52489;47.502;18.940;2022-09-12T04:16:40;98010.81;;;12.44;88.52
65756;BME280;52489;47.502;18.940;2022-09-12T04:17:43;98015.19;;;12.58;87.89
65756;BME280;52489;47.502;18.940;2022-09-12T04:18:46;98003.56;;;12.50;88.22
65756;BME280;52489;47.502;18.940;2022-09-12T04:19:49;98002.34;;;12.56;88.13
65756;BME280;52489;47.502;18.940;2022-09-12T04:20:53;97996.63;;;12.54;87.97
65756;BME280;52489;47.502;18.940;2022-09-12T04:21:56;97997.22;;;12.51;88.16
65756;BME280;52489;47.502;18.940;2022-09-12T04:22:58;98007.59;;;12.47;88.67
65756;BME280;52489;47.502;18.940;2022-09-12T04:24:06;98008.06;;;12.67;87.93
65756;BME280;52489;47.502;18.940;2022-09-12T04:25:09;98005.13;;;12.60;87.50
65756;BME280;52489;47.502;18.940;2022-09-12T04:26:14;98002.97;;;12.70;87.17
65756;BME280;52489;47.502;18.940;2022-09-12T04:27:20;98003.72;;;12.62;87.50
65756;BME280;52489;47.502;18.940;2022-09-12T04:28:24;97996.94;;;12.61;87.61
65756;BME280;52489;47.502;18.940;2022-09-12T04:29:27;98010.06;;;12.52;87.72
65756;BME280;52489;47.502;18.940;2022-09-12T04:30:32;98004.81;;;12.52;87.60
65756;BME280;52489;47.502;18.940;2022-09-12T04:31:36;98013.00;;;12.51;87.90
65756;BME280;52489;47.502;18.940;2022-09-12T04:32:38;98006.97;;;12.50;88.21
65756;BME280;52489;47.502;18.940;2022-09-12T04:33:46;97997.56;;;12.58;87.75
65756;BME280;52489;47.502;18.940;2022-09-12T04:34:49;97999.72;;;12.56;87.72
65756;BME280;52489;47.502;18.940;2022-09-12T04:35:54;98001.56;;;12.47;88.14
65756;BME280;52489;47.502;18.940;2022-09-12T04:36:57;98002.19;;;12.52;87.80
65756;BME280;52489;47.502;18.940;2022-09-12T04:38:01;97999.56;;;12.52;87.90
65756;BME280;52489;47.502;18.940;2022-09-12T04:39:04;97994.94;;;12.58;87.79
65756;BME280;52489;47.502;18.940;2022-09-12T04:40:07;97993.69;;;12.64;87.54
65756;BME280;52489;47.502;18.940;2022-09-12T04:41:16;97997.56;;;12.67;87.21
65756;BME280;52489;47.502;18.940;2022-09-12T04:42:19;97995.84;;;12.62;87.30
65756;BME280;52489;47.502;18.940;2022-09-12T04:43:22;98005.91;;;12.51;87.69
65756;BME280;52489;47.502;18.940;2022-09-12T04:44:25;97999.41;;;12.49;88.26
65756;BME280;52489;47.502;18.940;2022-09-12T04:45:28;98000.62;;;12.43;88.51
65756;BME280;52489;47.502;18.940;2022-09-12T04:46:34;98004.34;;;12.50;88.41
65756;BME280;52489;47.502;18.940;2022-09-12T04:47:38;98003.72;;;12.53;87.94
65756;BME280;52489;47.502;18.940;2022-09-12T04:48:42;98003.56;;;12.50;87.87
65756;BME280;52489;47.502;18.940;2022-09-12T04:49:45;98006.81;;;12.56;87.70
65756;BME280;52489;47.502;18.940;2022-09-12T04:50:49;98001.72;;;12.59;87.42
65756;BME280;52489;47.502;18.940;2022-09-12T04:51:53;97997.22;;;12.51;87.89
65756;BME280;52489;47.502;18.940;2022-09-12T04:52:56;97995.81;;;12.36;88.69
65756;BME280;52489;47.502;18.940;2022-09-12T04:54:02;98001.66;;;12.24;89.50
65756;BME280;52489;47.502;18.940;2022-09-12T04:55:06;98010.63;;;12.23;89.59
65756;BME280;52489;47.502;18.940;2022-09-12T04:56:10;98008.62;;;12.20;89.87
65756;BME280;52489;47.502;18.940;2022-09-12T04:57:14;98018.25;;;12.34;89.52
65756;BME280;52489;47.502;18.940;2022-09-12T04:58:17;98020.09;;;12.50;88.63
65756;BME280;52489;47.502;18.940;2022-09-12T04:59:22;98021.97;;;12.59;88.14
65756;BME280;52489;47.502;18.940;2022-09-12T05:00:25;98014.88;;;12.59;87.84
65756;BME280;52489;47.502;18.940;2022-09-12T05:01:28;98017.97;;;12.52;88.12
65756;BME280;52489;47.502;18.940;2022-09-12T05:02:34;98018.44;;;12.55;88.12
65756;BME280;52489;47.502;18.940;2022-09-12T05:03:38;98018.09;;;12.56;88.16
65756;BME280;52489;47.502;18.940;2022-09-12T05:04:41;98018.59;;;12.58;88.10
65756;BME280;52489;47.502;18.940;2022-09-12T05:05:44;98017.34;;;12.56;87.74
65756;BME280;52489;47.502;18.940;2022-09-12T05:06:47;98023.97;;;12.53;88.04
65756;BME280;52489;47.502;18.940;2022-09-12T05:07:50;98017.03;;;12.57;88.15
65756;BME280;52489;47.502;18.940;2022-09-12T05:08:53;98021.38;;;12.70;87.24
65756;BME280;52489;47.502;18.940;2022-09-12T05:09:57;98026.16;;;12.68;87.24
65756;BME280;52489;47.502;18.940;2022-09-12T05:11:11;98026.94;;;12.51;87.86
65756;BME280;52489;47.502;18.940;2022-09-12T05:12:14;98030.00;;;12.62;87.49
65756;BME280;52489;47.502;18.940;2022-09-12T05:13:17;98028.16;;;12.63;87.56
65756;BME280;52489;47.502;18.940;2022-09-12T05:14:20;98028.31;;;12.58;87.59
65756;BME280;52489;47.502;18.940;2022-09-12T05:15:23;98024.91;;;12.66;87.59
65756;BME280;52489;47.502;18.940;2022-09-12T05:16:27;98028.94;;;12.63;87.52
65756;BME280;52489;47.502;18.940;2022-09-12T05:17:30;98024.59;;;12.59;87.71
65756;BME280;52489;47.502;18.940;2022-09-12T05:18:35;98029.72;;;12.55;88.09
65756;BME280;52489;47.502;18.940;2022-09-12T05:19:38;98039.28;;;12.68;87.48
65756;BME280;52489;47.502;18.940;2022-09-12T05:20:41;98041.00;;;12.64;87.46
65756;BME280;52489;47.502;18.940;2022-09-12T05:21:43;98047.59;;;12.44;88.57
65756;BME280;52489;47.502;18.940;2022-09-12T05:22:46;98045.16;;;12.57;88.32
65756;BME280;52489;47.502;18.940;2022-09-12T05:23:54;98055.41;;;12.75;87.29
65756;BME280;52489;47.502;18.940;2022-09-12T05:24:57;98053.81;;;12.66;87.39
65756;BME280;52489;47.502;18.940;2022-09-12T05:26:01;98061.72;;;12.74;87.04
65756;BME280;52489;47.502;18.940;2022-09-12T05:27:04;98063.13;;;12.72;87.09
65756;BME280;52489;47.502;18.940;2022-09-12T05:28:07;98066.34;;;12.78;86.98
65756;BME280;52489;47.502;18.940;2022-09-12T05:29:10;98057.72;;;12.86;86.46
65756;BME280;52489;47.502;18.940;2022-09-12T05:30:15;98054.62;;;12.84;86.30
65756;BME280;52489;47.502;18.940;2022-09-12T05:31:22;98069.31;;;12.93;85.98
65756;BME280;52489;47.502;18.940;2022-09-12T05:32:30;98058.81;;;12.85;86.24
65756;BME280;52489;47.502;18.940;2022-09-12T05:33:35;98067.47;;;12.85;86.32
65756;BME280;52489;47.502;18.940;2022-09-12T05:34:39;98064.22;;;12.88;85.96
65756;BME280;52489;47.502;18.940;2022-09-12T05:35:50;98071.47;;;12.91;85.91
65756;BME280;52489;47.502;18.940;2022-09-12T05:36:53;98068.22;;;12.86;85.97
65756;BME280;52489;47.502;18.940;2022-09-12T05:37:56;98072.41;;;12.78;86.62
65756;BME280;52489;47.502;18.940;2022-09-12T05:38:59;98067.31;;;12.82;86.79
65756;BME280;52489;47.502;18.940;2022-09-12T05:40:02;98064.22;;;12.88;86.54
65756;BME280;52489;47.502;18.940;2022-09-12T05:41:11;98064.53;;;12.87;86.72
65756;BME280;52489;47.502;18.940;2022-09-12T05:42:19;98066.53;;;12.81;87.18
65756;BME280;52489;47.502;18.940;2022-09-12T05:43:22;98070.41;;;12.84;87.35
65756;BME280;52489;47.502;18.940;2022-09-12T05:44:25;98066.38;;;12.95;87.14
65756;BME280;52489;47.502;18.940;2022-09-12T05:45:28;98073.50;;;13.03;86.62
65756;BME280;52489;47.502;18.940;2022-09-12T05:46:37;98073.03;;;13.10;86.31
65756;BME280;52489;47.502;18.940;2022-09-12T05:47:40;98071.94;;;13.02;86.73
65756;BME280;52489;47.502;18.940;2022-09-12T05:48:47;98069.94;;;13.08;86.59
65756;BME280;52489;47.502;18.940;2022-09-12T05:49:56;98068.09;;;13.17;86.26
65756;BME280;52489;47.502;18.940;2022-09-12T05:51:06;98078.78;;;13.38;85.27
65756;BME280;52489;47.502;18.940;2022-09-12T05:52:10;98075.34;;;13.20;86.18
65756;BME280;52489;47.502;18.940;2022-09-12T05:53:14;98073.81;;;13.10;86.80
65756;BME280;52489;47.502;18.940;2022-09-12T05:54:17;98078.78;;;13.29;86.37
65756;BME280;52489;47.502;18.940;2022-09-12T05:55:22;98080.47;;;13.34;85.92
65756;BME280;52489;47.502;18.940;2022-09-12T05:56:27;98080.44;;;13.42;85.57
65756;BME280;52489;47.502;18.940;2022-09-12T05:57:31;98076.12;;;13.38;85.79
65756;BME280;52489;47.502;18.940;2022-09-12T05:58:36;98087.22;;;13.70;83.88
65756;BME280;52489;47.502;18.940;2022-09-12T05:59:39;98084.44;;;13.66;83.70
65756;BME280;52489;47.502;18.940;2022-09-12T06:00:42;98077.78;;;13.69;83.63
65756;BME280;52489;47.502;18.940;2022-09-12T06:01:46;98083.66;;;13.74;83.38
65756;BME280;52489;47.502;18.940;2022-09-12T06:02:51;98081.78;;;13.75;83.29
65756;BME280;52489;47.502;18.940;2022-09-12T06:03:56;98067.53;;;13.76;82.28
65756;BME280;52489;47.502;18.940;2022-09-12T06:05:02;98070.94;;;13.76;82.81
65756;BME280;52489;47.502;18.940;2022-09-12T06:06:10;98074.19;;;13.82;82.64
65756;BME280;52489;47.502;18.940;2022-09-12T06:07:16;98070.41;;;14.00;82.03
65756;BME280;52489;47.502;18.940;2022-09-12T06:08:19;98068.06;;;13.99;82.14
65756;BME280;52489;47.502;18.940;2022-09-12T06:09:22;98078.47;;;13.95;81.52
65756;BME280;52489;47.502;18.940;2022-09-12T06:10:27;98069.44;;;14.05;81.39
65756;BME280;52489;47.502;18.940;2022-09-12T06:11:32;98074.53;;;14.10;81.05
65756;BME280;52489;47.502;18.940;2022-09-12T06:12:36;98079.53;;;14.03;81.48
65756;BME280;52489;47.502;18.940;2022-09-12T06:13:42;98077.12;;;14.19;80.89
65756;BME280;52489;47.502;18.940;2022-09-12T06:14:45;98076.62;;;14.25;80.92
65756;BME280;52489;47.502;18.940;2022-09-12T06:15:48;98075.66;;;14.39;79.60
65756;BME280;52489;47.502;18.940;2022-09-12T06:16:51;98080.31;;;14.33;80.57
65756;BME280;52489;47.502;18.940;2022-09-12T06:17:54;98081.59;;;14.27;81.01
65756;BME280;52489;47.502;18.940;2022-09-12T06:18:59;98080.31;;;14.33;80.64
65756;BME280;52489;47.502;18.940;2022-09-12T06:20:02;98088.13;;;14.50;80.41
65756;BME280;52489;47.502;18.940;2022-09-12T06:21:08;98090.72;;;14.68;79.30
65756;BME280;52489;47.502;18.940;2022-09-12T06:22:11;98089.28;;;14.70;79.32
65756;BME280;52489;47.502;18.940;2022-09-12T06:23:16;98088.06;;;14.68;78.89
65756;BME280;52489;47.502;18.940;2022-09-12T06:24:20;98091.47;;;14.68;78.87
65756;BME280;52489;47.502;18.940;2022-09-12T06:25:23;98097.78;;;14.76;78.12
65756;BME280;52489;47.502;18.940;2022-09-12T06:26:27;98098.03;;;14.83;78.28
65756;BME280;52489;47.502;18.940;2022-09-12T06:27:32;98096.88;;;14.93;77.22
65756;BME280;52489;47.502;18.940;2022-09-12T06:28:37;98091.41;;;14.98;77.17
65756;BME280;52489;47.502;18.940;2022-09-12T06:29:40;98094.31;;;15.05;77.11
65756;BME280;52489;47.502;18.940;2022-09-12T06:30:43;98093.59;;;15.17;76.54
65756;BME280;52489;47.502;18.940;2022-09-12T06:31:46;98094.25;;;15.14;76.09
65756;BME280;52489;47.502;18.940;2022-09-12T06:32:49;98096.22;;;15.17;76.53
65756;BME280;52489;47.502;18.940;2022-09-12T06:33:54;98091.78;;;15.30;75.89